Detroit, MI

10:15 AM EDT on August 30, 2014 (GMT -0400)
IPH North End @ Considine Center | Change Station
CLOSE
Current Station
Personal Weather Station
Location: Detroit, MI
Elevation: 640 ft
Nearby Weather Stations

Elev 640 ft 42.38 °N, 83.08 °W | Updated 2 seconds ago

Clear
Clear
80.1 °F
Feels Like 83 °F
N
7.0
Wind Variable Wind from South
Gusts 19.0 mph

Today
High -- | Low -- °F
--% Chance of Precip.
Yesterday
High -- | Low -- °F
Precip. -- in
6:55 AM 8:09 PM
Waxing Crescent, 22% visible
Pressure 29.95 in
Visibility 10.0 miles
Clouds Clear
Heat Index 83 °F
Dew Point 68 °F
Humidity 67%
Rainfall 0.00 in
Snow Depth Not available.
UV 3 out of 12
Pollen 8.60 out of 12
Ozone Good
PM2.5 Moderate
Flu Activity Not available.
METAR KDET 301353Z 20010KT 10SM CLR 27/19 A2997 RMK AO2 SLP142 T02670189 $

More Conditions Fewer Conditions

Pressure 29.95 in
Visibility 10.0 miles
Clouds Clear
Heat Index 83 °F
Dew Point 68 °F
Humidity 67%
Rainfall 0.00 in
Snow Depth Not available.
UV 3 out of 12
Pollen 8.60 out of 12
Ozone Good
PM2.5 Moderate
Flu Activity Not available.
METAR KDET 301353Z 20010KT 10SM CLR 27/19 A2997 RMK AO2 SLP142 T02670189 $

More Conditions Fewer Conditions

10-Day Weather Forecast

Almanac

Astronomy

Aug. 30, 2014 Rise Set
Actual Time 6:55 AM EDT 8:09 PM EDT
Civil Twilight 6:26 AM EDT 8:38 PM EDT
Nautical Twilight 5:51 AM EDT 9:13 PM EDT
Astronomical Twilight 5:14 AM EDT 9:49 PM EDT
Moon 11:48 AM EDT 10:36 PM EDT
Length of Visible Light 14h 12m
Length of Day
13h 14m
Tomorrow will be 2m 44s shorter.
Waxing Crescent, 22% of the Moon is Illuminated
Today
Waxing Crescent
Sep 2
First Quarter
Sep 8
Full
Sep 15
Last Quarter
Sep 24
New

Today's Extremes

State Highs State Lows

Community

WunderPhotos

Upload Photos

1,748,516 photos uploaded!

WunderBlogs® & News

By Dr. Jeff Masters
Director of Meteorology, Weather Underground
By Kari Strenfel
Meteorologist, Weather Underground
By Christopher C. Burt
Weather Historian, Weather Underground
August 30, 2014
August 30, 2014
August 30, 2014

Nearby

Air Quality

  Air Quality AQ Index Pollutant
Yesterday Good
PM10
Yesterday Good
OZONE
Current Moderate
PM2.5
Current Good
OZONE
Saturday Moderate
PM2.5
Saturday Good
OZONE
Sunday Good
OZONE
Sunday Good
PM2.5
Monday Good
OZONE
Monday Good
PM2.5
Tuesday Good
OZONE
Tuesday Good
PM2.5

Snow Depth

Station Depth Elevation
No new snow has been reported.

Earthquake Activity

City Distance Mag. Time & Date
No recent earthquake activity has been reported nearby.
Minimum magnitude displayed is 2.5.

Coastal Water Temperatures

Place Temperature
Marblehead, OH 73.0 °F

Nearby Weather Stations